AAL1989 KSAN-KPDX
Flight info
| Callsign | AAL1989 |
|---|---|
| Flight time | N/A |
| Altitude | 36000 |
| Route | PADRZ2 EHF DNOLD GALLO TMBRS3 |
| Aircraft | A20N/M-SDE2E3FGHIRWXY/LB1 |
Departure
| Time | 2026-04-25 00:43 |
|---|---|
| Airport | San Diego International Airport (KSAN) |
Arrival
| Time | N/A |
|---|---|
| Airport | Portland International Airport (KPDX) |
| Time | Latitude | Longitude | Altitude | Speed | Heading |
|---|---|---|---|---|---|
| 2026-04-25 00:16 | 32.73289 | -117.19562 | 24 ft | 0 kts | 282° |
| 2026-04-25 00:21 | 32.73286 | -117.19543 | 28 ft | 3 kts | 285° |
| 2026-04-25 00:21 | 32.73281 | -117.19524 | 27 ft | 1 kts | 290° |
| 2026-04-25 00:21 | 32.73271 | -117.19505 | 27 ft | 8 kts | 334° |
| 2026-04-25 00:22 | 32.73246 | -117.19506 | 27 ft | 0 kts | 39° |
| 2026-04-25 00:22 | 32.73258 | -117.19494 | 26 ft | 0 kts | 39° |
| 2026-04-25 00:28 | 32.73274 | -117.19478 | 24 ft | 8 kts | 39° |
| 2026-04-25 00:28 | 32.73342 | -117.19392 | 25 ft | 17 kts | 66° |
| 2026-04-25 00:28 | 32.73316 | -117.19236 | 25 ft | 21 kts | 105° |
| 2026-04-25 00:28 | 32.73276 | -117.19065 | 28 ft | 22 kts | 105° |
| 2026-04-25 00:29 | 32.73233 | -117.18887 | 26 ft | 23 kts | 107° |
| 2026-04-25 00:29 | 32.73186 | -117.18702 | 27 ft | 24 kts | 107° |
| 2026-04-25 00:29 | 32.73139 | -117.18498 | 25 ft | 27 kts | 105° |
| 2026-04-25 00:29 | 32.73084 | -117.18279 | 24 ft | 29 kts | 106° |
| 2026-04-25 00:30 | 32.73022 | -117.18052 | 20 ft | 29 kts | 128° |
| 2026-04-25 00:30 | 32.72893 | -117.17929 | 20 ft | 20 kts | 130° |
| 2026-04-25 00:30 | 32.72887 | -117.17857 | 19 ft | 0 kts | 73° |
| 2026-04-25 00:41 | 32.72888 | -117.17855 | 19 ft | 2 kts | 73° |
| 2026-04-25 00:41 | 32.72913 | -117.17770 | 18 ft | 20 kts | 63° |
| 2026-04-25 00:42 | 32.72984 | -117.17591 | 22 ft | 15 kts | 42° |
| 2026-04-25 00:42 | 32.73037 | -117.17651 | 22 ft | 24 kts | 285° |
| 2026-04-25 00:42 | 32.73161 | -117.18164 | 25 ft | 102 kts | 286° |
| 2026-04-25 00:42 | 32.73407 | -117.19213 | 62 ft | 155 kts | 285° |
| 2026-04-25 00:43 | 32.73692 | -117.20406 | 941 ft | 146 kts | 285° |
| 2026-04-25 00:43 | 32.74126 | -117.21513 | 1736 ft | 153 kts | 303° |
| 2026-04-25 00:43 | 32.74793 | -117.22575 | 2252 ft | 169 kts | 303° |
| 2026-04-25 00:43 | 32.75516 | -117.23767 | 2739 ft | 186 kts | 302° |
| 2026-04-25 00:44 | 32.76283 | -117.25107 | 3160 ft | 206 kts | 301° |
| 2026-04-25 00:44 | 32.77107 | -117.26602 | 3532 ft | 228 kts | 301° |
| 2026-04-25 00:44 | 32.78004 | -117.28261 | 3963 ft | 249 kts | 301° |
| 2026-04-25 00:44 | 32.78967 | -117.30053 | 4627 ft | 263 kts | 301° |
| 2026-04-25 00:45 | 32.79976 | -117.31885 | 5572 ft | 264 kts | 304° |
| 2026-04-25 00:45 | 32.81105 | -117.33627 | 6497 ft | 268 kts | 306° |
| 2026-04-25 00:45 | 32.82230 | -117.35362 | 7359 ft | 269 kts | 305° |
| 2026-04-25 00:45 | 32.83394 | -117.37162 | 8197 ft | 273 kts | 305° |
| 2026-04-25 00:46 | 32.84541 | -117.38939 | 9075 ft | 274 kts | 305° |
| 2026-04-25 00:46 | 32.85708 | -117.40744 | 9940 ft | 276 kts | 304° |
| 2026-04-25 00:46 | 32.88162 | -117.44560 | 10742 ft | 311 kts | 304° |
| 2026-04-25 00:47 | 32.89517 | -117.46668 | 11144 ft | 325 kts | 304° |
| 2026-04-25 00:47 | 32.90899 | -117.48811 | 11915 ft | 326 kts | 304° |
| 2026-04-25 00:47 | 32.92285 | -117.50957 | 12740 ft | 328 kts | 303° |
| 2026-04-25 00:47 | 32.93681 | -117.53122 | 13516 ft | 330 kts | 303° |
| 2026-04-25 00:48 | 32.95062 | -117.55270 | 14208 ft | 332 kts | 303° |
| 2026-04-25 00:48 | 32.96487 | -117.57491 | 14890 ft | 335 kts | 303° |
| 2026-04-25 00:48 | 32.97888 | -117.59676 | 15543 ft | 337 kts | 303° |
| 2026-04-25 00:48 | 32.99313 | -117.61901 | 16218 ft | 339 kts | 302° |
| 2026-04-25 00:49 | 33.00751 | -117.64147 | 16844 ft | 342 kts | 302° |
| 2026-04-25 00:49 | 33.02199 | -117.66411 | 17471 ft | 345 kts | 302° |
| 2026-04-25 00:49 | 33.03658 | -117.68693 | 18111 ft | 347 kts | 302° |
| 2026-04-25 00:49 | 33.05130 | -117.70995 | 18647 ft | 350 kts | 302° |
| 2026-04-25 00:50 | 33.06741 | -117.73210 | 19160 ft | 357 kts | 309° |
| 2026-04-25 00:50 | 33.08603 | -117.75216 | 19682 ft | 363 kts | 314° |
| 2026-04-25 00:50 | 33.09884 | -117.76501 | 20034 ft | 365 kts | 314° |
| 2026-04-25 00:50 | 33.11826 | -117.78468 | 20550 ft | 367 kts | 313° |
| 2026-04-25 00:51 | 33.13802 | -117.80478 | 21104 ft | 370 kts | 313° |
| 2026-04-25 00:51 | 33.15740 | -117.82454 | 21597 ft | 373 kts | 313° |
| 2026-04-25 00:51 | 33.17719 | -117.84472 | 22109 ft | 376 kts | 313° |
| 2026-04-25 00:51 | 33.19714 | -117.86507 | 22614 ft | 379 kts | 313° |
| 2026-04-25 00:52 | 33.21748 | -117.88530 | 23116 ft | 382 kts | 314° |
| 2026-04-25 00:52 | 33.23822 | -117.90541 | 23605 ft | 385 kts | 315° |
| 2026-04-25 00:52 | 33.25909 | -117.92557 | 24049 ft | 387 kts | 315° |
| 2026-04-25 00:52 | 33.28002 | -117.94584 | 24511 ft | 388 kts | 314° |
| 2026-04-25 00:53 | 33.30101 | -117.96626 | 24929 ft | 390 kts | 314° |
| 2026-04-25 00:53 | 33.32205 | -117.98680 | 25353 ft | 391 kts | 314° |
| 2026-04-25 00:53 | 33.34319 | -118.00746 | 25769 ft | 393 kts | 314° |
| 2026-04-25 00:53 | 33.36438 | -118.02821 | 26171 ft | 395 kts | 314° |
| 2026-04-25 00:54 | 33.38567 | -118.04906 | 26554 ft | 397 kts | 314° |
| 2026-04-25 00:54 | 33.40707 | -118.07004 | 26929 ft | 399 kts | 314° |
| 2026-04-25 00:54 | 33.42858 | -118.09113 | 27318 ft | 400 kts | 314° |
| 2026-04-25 00:54 | 33.45020 | -118.11234 | 27666 ft | 402 kts | 314° |
| 2026-04-25 00:55 | 33.47190 | -118.13365 | 28027 ft | 404 kts | 314° |
| 2026-04-25 00:55 | 33.50076 | -118.16202 | 28468 ft | 407 kts | 314° |
| 2026-04-25 00:55 | 33.51556 | -118.17657 | 28706 ft | 408 kts | 314° |
| 2026-04-25 00:55 | 33.53753 | -118.19819 | 28997 ft | 410 kts | 313° |
| 2026-04-25 00:56 | 33.55984 | -118.21968 | 29304 ft | 414 kts | 316° |
| 2026-04-25 00:56 | 33.58411 | -118.23890 | 29596 ft | 422 kts | 322° |
| 2026-04-25 00:56 | 33.61013 | -118.25497 | 29868 ft | 430 kts | 328° |
| 2026-04-25 00:56 | 33.63752 | -118.26985 | 30128 ft | 432 kts | 327° |
| 2026-04-25 00:57 | 33.66490 | -118.28491 | 30384 ft | 434 kts | 327° |
| 2026-04-25 00:57 | 33.69239 | -118.30010 | 30655 ft | 435 kts | 327° |
| 2026-04-25 00:57 | 33.71989 | -118.31531 | 30914 ft | 437 kts | 327° |
| 2026-04-25 00:57 | 33.74752 | -118.33058 | 31255 ft | 436 kts | 327° |
| 2026-04-25 00:58 | 33.77507 | -118.34561 | 31582 ft | 436 kts | 327° |
| 2026-04-25 00:58 | 33.80314 | -118.35990 | 31870 ft | 438 kts | 328° |
| 2026-04-25 00:58 | 33.83133 | -118.37386 | 32193 ft | 437 kts | 328° |
| 2026-04-25 00:58 | 33.85949 | -118.38780 | 32519 ft | 436 kts | 328° |
| 2026-04-25 00:59 | 33.88716 | -118.40160 | 32832 ft | 436 kts | 327° |
| 2026-04-25 00:59 | 33.91509 | -118.41563 | 33151 ft | 435 kts | 327° |
| 2026-04-25 00:59 | 33.94296 | -118.42970 | 33449 ft | 434 kts | 327° |
| 2026-04-25 00:59 | 33.97081 | -118.44374 | 33748 ft | 435 kts | 328° |
| 2026-04-25 01:00 | 33.99969 | -118.45563 | 33937 ft | 443 kts | 334° |
| 2026-04-25 01:00 | 34.06150 | -118.46871 | 34199 ft | 456 kts | 342° |
| 2026-04-25 01:00 | 34.09288 | -118.47341 | 34463 ft | 454 kts | 342° |
| 2026-04-25 01:01 | 34.12422 | -118.47824 | 34661 ft | 453 kts | 342° |
| 2026-04-25 01:01 | 34.15549 | -118.48311 | 34838 ft | 453 kts | 342° |
| 2026-04-25 01:01 | 34.18686 | -118.48798 | 35059 ft | 453 kts | 342° |
| 2026-04-25 01:01 | 34.21809 | -118.49281 | 35267 ft | 452 kts | 342° |
| 2026-04-25 01:02 | 34.24885 | -118.49755 | 35475 ft | 452 kts | 342° |
| 2026-04-25 01:02 | 34.28045 | -118.50242 | 35671 ft | 451 kts | 342° |
| 2026-04-25 01:02 | 34.31114 | -118.50715 | 35882 ft | 451 kts | 341° |
| 2026-04-25 01:03 | 34.37334 | -118.51675 | 35924 ft | 449 kts | 341° |
| 2026-04-25 01:03 | 34.43537 | -118.52635 | 35925 ft | 449 kts | 341° |
| 2026-04-25 01:04 | 34.49741 | -118.53595 | 35918 ft | 448 kts | 341° |
| 2026-04-25 01:04 | 34.55903 | -118.54553 | 35906 ft | 449 kts | 341° |
| 2026-04-25 01:05 | 34.62100 | -118.55516 | 35895 ft | 449 kts | 341° |
| 2026-04-25 01:05 | 34.65208 | -118.55999 | 35677 ft | 449 kts | 342° |
| 2026-04-25 01:05 | 34.68306 | -118.56482 | 35455 ft | 449 kts | 342° |
| 2026-04-25 01:06 | 34.74532 | -118.57455 | 35629 ft | 451 kts | 342° |
| 2026-04-25 01:06 | 34.77650 | -118.57939 | 35846 ft | 450 kts | 342° |
| 2026-04-25 01:06 | 34.80758 | -118.58423 | 35902 ft | 449 kts | 342° |
| 2026-04-25 01:07 | 34.86941 | -118.59389 | 35915 ft | 448 kts | 341° |
| 2026-04-25 01:07 | 34.93133 | -118.60360 | 35927 ft | 448 kts | 341° |
| 2026-04-25 01:08 | 34.99228 | -118.61793 | 35931 ft | 440 kts | 330° |
| 2026-04-25 01:08 | 35.04528 | -118.65061 | 35943 ft | 423 kts | 315° |
| 2026-04-25 01:09 | 35.09069 | -118.69572 | 35938 ft | 420 kts | 311° |
| 2026-04-25 01:09 | 35.13564 | -118.74116 | 35918 ft | 420 kts | 311° |
| 2026-04-25 01:10 | 35.18068 | -118.78682 | 35901 ft | 420 kts | 311° |
| 2026-04-25 01:10 | 35.22563 | -118.83253 | 35870 ft | 420 kts | 311° |
| 2026-04-25 01:11 | 35.27050 | -118.87823 | 35865 ft | 420 kts | 311° |
| 2026-04-25 01:11 | 35.31534 | -118.92398 | 35863 ft | 420 kts | 311° |
| 2026-04-25 01:12 | 35.34820 | -118.95755 | 35860 ft | 420 kts | 311° |
| 2026-04-25 01:12 | 35.37898 | -118.98903 | 35860 ft | 420 kts | 311° |
| 2026-04-25 01:13 | 35.42233 | -119.03342 | 35861 ft | 420 kts | 311° |
| 2026-04-25 01:13 | 35.46913 | -119.07774 | 35861 ft | 429 kts | 318° |
| 2026-04-25 01:14 | 35.52287 | -119.11094 | 35863 ft | 444 kts | 329° |
| 2026-04-25 01:14 | 35.58230 | -119.13415 | 35863 ft | 449 kts | 333° |
| 2026-04-25 01:15 | 35.64189 | -119.15685 | 35874 ft | 448 kts | 333° |
| 2026-04-25 01:15 | 35.70142 | -119.17956 | 35868 ft | 448 kts | 333° |
| 2026-04-25 01:16 | 35.76104 | -119.20219 | 35873 ft | 447 kts | 333° |
| 2026-04-25 01:16 | 35.82054 | -119.22484 | 35874 ft | 447 kts | 333° |
| 2026-04-25 01:17 | 35.88000 | -119.24753 | 35866 ft | 447 kts | 333° |
| 2026-04-25 01:17 | 35.93937 | -119.27023 | 35890 ft | 447 kts | 333° |
| 2026-04-25 01:18 | 35.99842 | -119.29284 | 35888 ft | 447 kts | 333° |
| 2026-04-25 01:18 | 36.05789 | -119.31565 | 35887 ft | 447 kts | 333° |
| 2026-04-25 01:19 | 36.11732 | -119.33848 | 35888 ft | 447 kts | 333° |
| 2026-04-25 01:19 | 36.17672 | -119.36133 | 35889 ft | 447 kts | 333° |
| 2026-04-25 01:20 | 36.23618 | -119.38424 | 35888 ft | 447 kts | 333° |
| 2026-04-25 01:20 | 36.29555 | -119.40716 | 35888 ft | 447 kts | 333° |
| 2026-04-25 01:21 | 36.34684 | -119.42698 | 35891 ft | 448 kts | 333° |
| 2026-04-25 01:21 | 36.40632 | -119.45002 | 35888 ft | 447 kts | 334° |
| 2026-04-25 01:22 | 36.46540 | -119.47293 | 35894 ft | 448 kts | 334° |
| 2026-04-25 01:22 | 36.52499 | -119.49608 | 35892 ft | 448 kts | 334° |
| 2026-04-25 01:23 | 36.58456 | -119.51925 | 35888 ft | 448 kts | 334° |
| 2026-04-25 01:23 | 36.64413 | -119.54247 | 35890 ft | 448 kts | 334° |
| 2026-04-25 01:24 | 36.70335 | -119.56558 | 35886 ft | 449 kts | 334° |
| 2026-04-25 01:24 | 36.76299 | -119.58889 | 35890 ft | 449 kts | 335° |
| 2026-04-25 01:25 | 36.82259 | -119.61223 | 35890 ft | 449 kts | 335° |
| 2026-04-25 01:25 | 36.88234 | -119.63567 | 35891 ft | 449 kts | 335° |
| 2026-04-25 01:26 | 36.94206 | -119.65913 | 35892 ft | 450 kts | 335° |
| 2026-04-25 01:26 | 37.00187 | -119.68267 | 35891 ft | 451 kts | 335° |
| 2026-04-25 01:27 | 37.06168 | -119.70623 | 35892 ft | 451 kts | 335° |
| 2026-04-25 01:27 | 37.12153 | -119.72985 | 35895 ft | 450 kts | 336° |
| 2026-04-25 01:28 | 37.21090 | -119.76520 | 35898 ft | 451 kts | 336° |
| 2026-04-25 01:28 | 37.27078 | -119.78893 | 35903 ft | 451 kts | 336° |
| 2026-04-25 01:29 | 37.33077 | -119.81275 | 35906 ft | 451 kts | 336° |
| 2026-04-25 01:29 | 37.39075 | -119.83660 | 35909 ft | 452 kts | 336° |
| 2026-04-25 01:30 | 37.45062 | -119.86045 | 35910 ft | 452 kts | 336° |
| 2026-04-25 01:30 | 37.51058 | -119.88438 | 35916 ft | 452 kts | 336° |
| 2026-04-25 01:31 | 37.57058 | -119.90836 | 35917 ft | 452 kts | 336° |
| 2026-04-25 01:31 | 37.63021 | -119.93224 | 35922 ft | 452 kts | 336° |
| 2026-04-25 01:32 | 37.69016 | -119.95627 | 35926 ft | 452 kts | 336° |
| 2026-04-25 01:32 | 37.75013 | -119.98036 | 35927 ft | 452 kts | 337° |
| 2026-04-25 01:33 | 37.81013 | -120.00451 | 35927 ft | 452 kts | 337° |
| 2026-04-25 01:33 | 37.87012 | -120.02869 | 35935 ft | 452 kts | 337° |
| 2026-04-25 01:34 | 37.93009 | -120.05291 | 35930 ft | 452 kts | 337° |
| 2026-04-25 01:34 | 37.99005 | -120.07717 | 35934 ft | 452 kts | 337° |
| 2026-04-25 01:35 | 38.05003 | -120.10146 | 35940 ft | 452 kts | 337° |
| 2026-04-25 01:35 | 38.10963 | -120.12565 | 35934 ft | 452 kts | 337° |
| 2026-04-25 01:36 | 38.16964 | -120.15004 | 35933 ft | 452 kts | 337° |
| 2026-04-25 01:36 | 38.22963 | -120.17447 | 35931 ft | 452 kts | 337° |
| 2026-04-25 01:37 | 38.27945 | -120.19478 | 35941 ft | 452 kts | 337° |
| 2026-04-25 01:37 | 38.33944 | -120.21929 | 35932 ft | 452 kts | 337° |
| 2026-04-25 01:38 | 38.39934 | -120.24380 | 35937 ft | 452 kts | 337° |
| 2026-04-25 01:38 | 38.45929 | -120.26838 | 35934 ft | 452 kts | 337° |
| 2026-04-25 01:39 | 38.51928 | -120.29301 | 35937 ft | 452 kts | 337° |
| 2026-04-25 01:39 | 38.57916 | -120.31765 | 35935 ft | 452 kts | 337° |
| 2026-04-25 01:40 | 38.63869 | -120.34218 | 35942 ft | 452 kts | 337° |
| 2026-04-25 01:40 | 38.69858 | -120.36690 | 35948 ft | 452 kts | 337° |
| 2026-04-25 01:41 | 38.75854 | -120.39170 | 35947 ft | 452 kts | 337° |
| 2026-04-25 01:41 | 38.81846 | -120.41652 | 35950 ft | 452 kts | 337° |
| 2026-04-25 01:42 | 38.87839 | -120.44140 | 35948 ft | 452 kts | 338° |
| 2026-04-25 01:42 | 38.93840 | -120.46636 | 35948 ft | 453 kts | 338° |
| 2026-04-25 01:43 | 38.99799 | -120.49118 | 35951 ft | 453 kts | 338° |
| 2026-04-25 01:43 | 39.05783 | -120.51614 | 35968 ft | 453 kts | 338° |
| 2026-04-25 01:44 | 39.11800 | -120.54129 | 35985 ft | 453 kts | 338° |
| 2026-04-25 01:44 | 39.17799 | -120.56641 | 36000 ft | 453 kts | 338° |
| 2026-04-25 01:45 | 39.23790 | -120.59154 | 36017 ft | 453 kts | 338° |
| 2026-04-25 01:45 | 39.29788 | -120.61675 | 36018 ft | 453 kts | 338° |
| 2026-04-25 01:46 | 39.35744 | -120.64183 | 36017 ft | 453 kts | 338° |
| 2026-04-25 01:46 | 39.41741 | -120.66713 | 35997 ft | 453 kts | 338° |
| 2026-04-25 01:47 | 39.47737 | -120.69247 | 35981 ft | 453 kts | 338° |
| 2026-04-25 01:47 | 39.53738 | -120.71787 | 35960 ft | 453 kts | 338° |
| 2026-04-25 01:48 | 39.59756 | -120.74340 | 35941 ft | 453 kts | 338° |
| 2026-04-25 01:48 | 39.65746 | -120.76884 | 35933 ft | 453 kts | 338° |
| 2026-04-25 01:49 | 39.71707 | -120.79422 | 35927 ft | 453 kts | 338° |
| 2026-04-25 01:49 | 39.77698 | -120.81977 | 35930 ft | 454 kts | 338° |
| 2026-04-25 01:50 | 39.83690 | -120.84537 | 35931 ft | 452 kts | 338° |
| 2026-04-25 01:50 | 39.89679 | -120.87100 | 35925 ft | 453 kts | 338° |
| 2026-04-25 01:51 | 39.95673 | -120.89669 | 35921 ft | 453 kts | 338° |
| 2026-04-25 01:51 | 40.01662 | -120.92242 | 35914 ft | 453 kts | 338° |
| 2026-04-25 01:52 | 40.07650 | -120.94819 | 35916 ft | 453 kts | 338° |
| 2026-04-25 01:52 | 40.13639 | -120.97401 | 35921 ft | 453 kts | 338° |
| 2026-04-25 01:53 | 40.19627 | -120.99989 | 35918 ft | 452 kts | 338° |
| 2026-04-25 01:53 | 40.25568 | -121.02560 | 35914 ft | 451 kts | 338° |
| 2026-04-25 01:54 | 40.31546 | -121.05150 | 35913 ft | 452 kts | 338° |
| 2026-04-25 01:54 | 40.37519 | -121.07741 | 35914 ft | 452 kts | 338° |
| 2026-04-25 01:55 | 40.43492 | -121.10338 | 35914 ft | 452 kts | 338° |
| 2026-04-25 01:55 | 40.49491 | -121.12872 | 35911 ft | 453 kts | 339° |
| 2026-04-25 01:56 | 40.55499 | -121.15336 | 35911 ft | 452 kts | 338° |
| 2026-04-25 01:56 | 40.61489 | -121.17805 | 35906 ft | 453 kts | 339° |
| 2026-04-25 01:57 | 40.69984 | -121.21312 | 35898 ft | 453 kts | 339° |
| 2026-04-25 01:58 | 40.76005 | -121.23803 | 35895 ft | 453 kts | 339° |
| 2026-04-25 01:58 | 40.81985 | -121.26283 | 35890 ft | 453 kts | 339° |
| 2026-04-25 01:59 | 40.87996 | -121.28780 | 35884 ft | 452 kts | 339° |
| 2026-04-25 01:59 | 40.94005 | -121.31281 | 35881 ft | 453 kts | 339° |
| 2026-04-25 02:00 | 41.00016 | -121.33788 | 35880 ft | 453 kts | 339° |
| 2026-04-25 02:00 | 41.06026 | -121.36298 | 35877 ft | 453 kts | 339° |
| 2026-04-25 02:01 | 41.12036 | -121.38814 | 35881 ft | 453 kts | 339° |
| 2026-04-25 02:01 | 41.18048 | -121.41335 | 35881 ft | 453 kts | 339° |
| 2026-04-25 02:02 | 41.24050 | -121.43858 | 35887 ft | 453 kts | 339° |
| 2026-04-25 02:02 | 41.30019 | -121.46370 | 35890 ft | 453 kts | 339° |
| 2026-04-25 02:03 | 41.36026 | -121.48904 | 35896 ft | 452 kts | 339° |
| 2026-04-25 02:03 | 41.42022 | -121.51438 | 35899 ft | 451 kts | 339° |
| 2026-04-25 02:04 | 41.48011 | -121.53974 | 35897 ft | 451 kts | 339° |
| 2026-04-25 02:04 | 41.53984 | -121.56508 | 35892 ft | 450 kts | 339° |
| 2026-04-25 02:05 | 41.59956 | -121.59047 | 35891 ft | 450 kts | 339° |
| 2026-04-25 02:05 | 41.65879 | -121.61570 | 35889 ft | 450 kts | 339° |
| 2026-04-25 02:06 | 41.71842 | -121.64114 | 35887 ft | 449 kts | 339° |
| 2026-04-25 02:06 | 41.77804 | -121.66664 | 35884 ft | 449 kts | 339° |
| 2026-04-25 02:07 | 41.83764 | -121.69219 | 35888 ft | 449 kts | 339° |
| 2026-04-25 02:07 | 41.89709 | -121.71770 | 35890 ft | 448 kts | 339° |
| 2026-04-25 02:08 | 41.95656 | -121.74327 | 35897 ft | 448 kts | 339° |
| 2026-04-25 02:08 | 42.01582 | -121.76882 | 35903 ft | 448 kts | 339° |
| 2026-04-25 02:09 | 42.07482 | -121.79429 | 35906 ft | 447 kts | 339° |
| 2026-04-25 02:09 | 42.13409 | -121.81993 | 35906 ft | 447 kts | 339° |
| 2026-04-25 02:10 | 42.19324 | -121.84558 | 35908 ft | 446 kts | 339° |
| 2026-04-25 02:10 | 42.25108 | -121.87066 | 35903 ft | 426 kts | 339° |
| 2026-04-25 02:11 | 42.30748 | -121.89522 | 35899 ft | 428 kts | 339° |
| 2026-04-25 02:11 | 42.36421 | -121.91998 | 35895 ft | 427 kts | 339° |
| 2026-04-25 02:12 | 42.42077 | -121.94470 | 35890 ft | 427 kts | 339° |
| 2026-04-25 02:12 | 42.47728 | -121.96942 | 35884 ft | 426 kts | 339° |
| 2026-04-25 02:13 | 42.53337 | -121.99402 | 35889 ft | 425 kts | 339° |
| 2026-04-25 02:13 | 42.58969 | -122.01876 | 35884 ft | 425 kts | 339° |
| 2026-04-25 02:14 | 42.64582 | -122.04347 | 35885 ft | 424 kts | 339° |
| 2026-04-25 02:14 | 42.70199 | -122.06824 | 35890 ft | 423 kts | 339° |
| 2026-04-25 02:15 | 42.75798 | -122.09298 | 35883 ft | 423 kts | 339° |
| 2026-04-25 02:15 | 42.81353 | -122.11757 | 35877 ft | 422 kts | 339° |
| 2026-04-25 02:16 | 42.86935 | -122.14231 | 35881 ft | 422 kts | 339° |
| 2026-04-25 02:16 | 42.92510 | -122.16707 | 35875 ft | 421 kts | 339° |
| 2026-04-25 02:17 | 42.98049 | -122.19289 | 35878 ft | 420 kts | 338° |
| 2026-04-25 02:17 | 43.00804 | -122.20594 | 35701 ft | 417 kts | 338° |
| 2026-04-25 02:17 | 43.03542 | -122.21889 | 35260 ft | 416 kts | 338° |
| 2026-04-25 02:17 | 43.06277 | -122.23179 | 34681 ft | 415 kts | 338° |
| 2026-04-25 02:18 | 43.09001 | -122.24463 | 34074 ft | 414 kts | 338° |
| 2026-04-25 02:18 | 43.11722 | -122.25745 | 33366 ft | 414 kts | 338° |
| 2026-04-25 02:18 | 43.14454 | -122.27034 | 32543 ft | 416 kts | 338° |
| 2026-04-25 02:18 | 43.17194 | -122.28327 | 31711 ft | 419 kts | 338° |
| 2026-04-25 02:19 | 43.19955 | -122.29631 | 30895 ft | 421 kts | 338° |
| 2026-04-25 02:19 | 43.22732 | -122.30943 | 30134 ft | 423 kts | 339° |
| 2026-04-25 02:19 | 43.25508 | -122.32256 | 29471 ft | 420 kts | 339° |
| 2026-04-25 02:19 | 43.28257 | -122.33556 | 28890 ft | 414 kts | 339° |
| 2026-04-25 02:20 | 43.30968 | -122.34840 | 28315 ft | 410 kts | 339° |
| 2026-04-25 02:20 | 43.33652 | -122.36113 | 27691 ft | 406 kts | 339° |
| 2026-04-25 02:20 | 43.36309 | -122.37374 | 27147 ft | 401 kts | 339° |
| 2026-04-25 02:20 | 43.38936 | -122.38623 | 26565 ft | 398 kts | 339° |
| 2026-04-25 02:21 | 43.41538 | -122.39863 | 26021 ft | 393 kts | 339° |
| 2026-04-25 02:21 | 43.44119 | -122.41093 | 25469 ft | 390 kts | 339° |
| 2026-04-25 02:21 | 43.46637 | -122.42293 | 24962 ft | 386 kts | 339° |
| 2026-04-25 02:21 | 43.49199 | -122.43518 | 24434 ft | 383 kts | 339° |
| 2026-04-25 02:22 | 43.51664 | -122.44697 | 24071 ft | 377 kts | 339° |
| 2026-04-25 02:22 | 43.54132 | -122.45879 | 23957 ft | 376 kts | 339° |
| 2026-04-25 02:22 | 43.56631 | -122.47078 | 23936 ft | 381 kts | 339° |
| 2026-04-25 02:22 | 43.59125 | -122.48274 | 23939 ft | 380 kts | 339° |
| 2026-04-25 02:23 | 43.61623 | -122.49473 | 23933 ft | 380 kts | 339° |
| 2026-04-25 02:23 | 43.64118 | -122.50671 | 23936 ft | 380 kts | 339° |
| 2026-04-25 02:23 | 43.66611 | -122.51870 | 23938 ft | 379 kts | 339° |
| 2026-04-25 02:23 | 43.69107 | -122.53070 | 23941 ft | 379 kts | 339° |
| 2026-04-25 02:24 | 43.71600 | -122.54271 | 23939 ft | 379 kts | 339° |
| 2026-04-25 02:24 | 43.74091 | -122.55471 | 23946 ft | 379 kts | 339° |
| 2026-04-25 02:24 | 43.75745 | -122.56269 | 23948 ft | 379 kts | 339° |
| 2026-04-25 02:24 | 43.78235 | -122.57470 | 23943 ft | 378 kts | 339° |
| 2026-04-25 02:25 | 43.80722 | -122.58672 | 23945 ft | 379 kts | 339° |
| 2026-04-25 02:25 | 43.83209 | -122.59874 | 23953 ft | 378 kts | 339° |
| 2026-04-25 02:25 | 43.85697 | -122.61078 | 23951 ft | 378 kts | 339° |
| 2026-04-25 02:25 | 43.88985 | -122.62671 | 23948 ft | 378 kts | 339° |
| 2026-04-25 02:26 | 43.90661 | -122.63484 | 23948 ft | 378 kts | 339° |
| 2026-04-25 02:26 | 43.93143 | -122.64689 | 23954 ft | 377 kts | 339° |
| 2026-04-25 02:26 | 43.95591 | -122.65877 | 23950 ft | 377 kts | 339° |
| 2026-04-25 02:26 | 43.98072 | -122.67083 | 23952 ft | 378 kts | 339° |
| 2026-04-25 02:27 | 44.00550 | -122.68289 | 23960 ft | 377 kts | 339° |
| 2026-04-25 02:27 | 44.03027 | -122.69494 | 23954 ft | 376 kts | 339° |
| 2026-04-25 02:27 | 44.05494 | -122.70697 | 23960 ft | 376 kts | 339° |
| 2026-04-25 02:27 | 44.07969 | -122.71904 | 23960 ft | 377 kts | 339° |
| 2026-04-25 02:28 | 44.10443 | -122.73112 | 23955 ft | 376 kts | 339° |
| 2026-04-25 02:28 | 44.12925 | -122.74208 | 23760 ft | 374 kts | 344° |
| 2026-04-25 02:28 | 44.15490 | -122.74847 | 23323 ft | 375 kts | 351° |
| 2026-04-25 02:28 | 44.18092 | -122.74995 | 22763 ft | 374 kts | 358° |
| 2026-04-25 02:29 | 44.20684 | -122.74749 | 22193 ft | 372 kts | 1° |
| 2026-04-25 02:29 | 44.23259 | -122.74487 | 21605 ft | 369 kts | 1° |
| 2026-04-25 02:29 | 44.25816 | -122.74239 | 21065 ft | 366 kts | 1° |
| 2026-04-25 02:29 | 44.28345 | -122.73996 | 20519 ft | 363 kts | 1° |
| 2026-04-25 02:30 | 44.30828 | -122.73756 | 19981 ft | 360 kts | 1° |
| 2026-04-25 02:30 | 44.33329 | -122.73511 | 19447 ft | 358 kts | 1° |
| 2026-04-25 02:30 | 44.35805 | -122.73267 | 18925 ft | 355 kts | 1° |
| 2026-04-25 02:30 | 44.38263 | -122.73025 | 18406 ft | 353 kts | 1° |
| 2026-04-25 02:31 | 44.40711 | -122.72784 | 17851 ft | 350 kts | 1° |
| 2026-04-25 02:31 | 44.43100 | -122.72548 | 17320 ft | 346 kts | 2° |
| 2026-04-25 02:31 | 44.45499 | -122.72310 | 16732 ft | 345 kts | 2° |
| 2026-04-25 02:31 | 44.47886 | -122.72074 | 16292 ft | 339 kts | 2° |
| 2026-04-25 02:32 | 44.50232 | -122.71841 | 16125 ft | 341 kts | 2° |
| 2026-04-25 02:32 | 44.52612 | -122.71606 | 16025 ft | 342 kts | 2° |
| 2026-04-25 02:32 | 44.54983 | -122.71370 | 16006 ft | 341 kts | 2° |
| 2026-04-25 02:32 | 44.57359 | -122.71134 | 16001 ft | 341 kts | 2° |
| 2026-04-25 02:33 | 44.59707 | -122.70900 | 15959 ft | 335 kts | 2° |
| 2026-04-25 02:33 | 44.61994 | -122.70669 | 15871 ft | 325 kts | 2° |
| 2026-04-25 02:33 | 44.64219 | -122.70444 | 15665 ft | 315 kts | 2° |
| 2026-04-25 02:33 | 44.66371 | -122.70227 | 15223 ft | 311 kts | 2° |
| 2026-04-25 02:34 | 44.68532 | -122.70012 | 14553 ft | 310 kts | 2° |
| 2026-04-25 02:34 | 44.70673 | -122.69799 | 13927 ft | 307 kts | 2° |
| 2026-04-25 02:34 | 44.72802 | -122.69586 | 13227 ft | 305 kts | 2° |
| 2026-04-25 02:34 | 44.74909 | -122.69375 | 12555 ft | 302 kts | 3° |
| 2026-04-25 02:35 | 44.76998 | -122.69166 | 11889 ft | 300 kts | 3° |
| 2026-04-25 02:35 | 44.79069 | -122.68958 | 11330 ft | 295 kts | 3° |
| 2026-04-25 02:35 | 44.81105 | -122.68753 | 11118 ft | 296 kts | 3° |
| 2026-04-25 02:35 | 44.83168 | -122.68546 | 11025 ft | 297 kts | 3° |
| 2026-04-25 02:36 | 44.85234 | -122.68339 | 11023 ft | 297 kts | 3° |
| 2026-04-25 02:36 | 44.87311 | -122.68131 | 11021 ft | 299 kts | 3° |
| 2026-04-25 02:36 | 44.89376 | -122.67923 | 11013 ft | 296 kts | 3° |
| 2026-04-25 02:36 | 44.91405 | -122.67718 | 11012 ft | 296 kts | 3° |
| 2026-04-25 02:37 | 44.93465 | -122.67510 | 11025 ft | 297 kts | 3° |
| 2026-04-25 02:37 | 44.95526 | -122.67302 | 11023 ft | 297 kts | 3° |
| 2026-04-25 02:37 | 44.97587 | -122.67093 | 10996 ft | 295 kts | 4° |
| 2026-04-25 02:37 | 44.99599 | -122.66889 | 10936 ft | 286 kts | 4° |
| 2026-04-25 02:38 | 45.01548 | -122.66691 | 10825 ft | 276 kts | 4° |
| 2026-04-25 02:38 | 45.03447 | -122.66497 | 10495 ft | 273 kts | 4° |
| 2026-04-25 02:38 | 45.05336 | -122.66305 | 10123 ft | 272 kts | 4° |
| 2026-04-25 02:38 | 45.07229 | -122.66114 | 9719 ft | 271 kts | 4° |
| 2026-04-25 02:39 | 45.09079 | -122.65852 | 9309 ft | 270 kts | 14° |
| 2026-04-25 02:39 | 45.10759 | -122.64700 | 8870 ft | 270 kts | 34° |
| 2026-04-25 02:39 | 45.12284 | -122.63155 | 8468 ft | 269 kts | 34° |
| 2026-04-25 02:39 | 45.13813 | -122.61613 | 8058 ft | 268 kts | 34° |
| 2026-04-25 02:40 | 45.15331 | -122.60102 | 7660 ft | 267 kts | 34° |
| 2026-04-25 02:40 | 45.16860 | -122.58599 | 7252 ft | 267 kts | 34° |
| 2026-04-25 02:40 | 45.18395 | -122.57113 | 6845 ft | 267 kts | 34° |
| 2026-04-25 02:40 | 45.19581 | -122.55985 | 6532 ft | 268 kts | 34° |
| 2026-04-25 02:41 | 45.21136 | -122.54526 | 6160 ft | 267 kts | 34° |
| 2026-04-25 02:41 | 45.22669 | -122.53079 | 5802 ft | 264 kts | 34° |
| 2026-04-25 02:41 | 45.24048 | -122.51753 | 5549 ft | 260 kts | 34° |
| 2026-04-25 02:41 | 45.25428 | -122.50409 | 5206 ft | 259 kts | 34° |
| 2026-04-25 02:42 | 45.26898 | -122.48953 | 4876 ft | 256 kts | 34° |
| 2026-04-25 02:42 | 45.28350 | -122.47496 | 4551 ft | 254 kts | 34° |
| 2026-04-25 02:42 | 45.29792 | -122.46029 | 4161 ft | 254 kts | 34° |
| 2026-04-25 02:42 | 45.31222 | -122.44561 | 3796 ft | 253 kts | 34° |
| 2026-04-25 02:43 | 45.32633 | -122.43090 | 3460 ft | 251 kts | 34° |
| 2026-04-25 02:43 | 45.34036 | -122.41621 | 3135 ft | 249 kts | 34° |
| 2026-04-25 02:43 | 45.35422 | -122.40165 | 3018 ft | 250 kts | 34° |
| 2026-04-25 02:43 | 45.36806 | -122.38719 | 2997 ft | 251 kts | 34° |
| 2026-04-25 02:44 | 45.38223 | -122.37245 | 3008 ft | 251 kts | 34° |
| 2026-04-25 02:44 | 45.39608 | -122.35799 | 2993 ft | 240 kts | 34° |
| 2026-04-25 02:44 | 45.40911 | -122.34430 | 2993 ft | 226 kts | 34° |
| 2026-04-25 02:44 | 45.42130 | -122.33149 | 2986 ft | 210 kts | 34° |
| 2026-04-25 02:45 | 45.43255 | -122.31958 | 2990 ft | 194 kts | 34° |
| 2026-04-25 02:45 | 45.44335 | -122.30846 | 2993 ft | 195 kts | 26° |
| 2026-04-25 02:45 | 45.45589 | -122.30496 | 3006 ft | 177 kts | 350° |
| 2026-04-25 02:45 | 45.46622 | -122.31245 | 2991 ft | 159 kts | 325° |
| 2026-04-25 02:46 | 45.47434 | -122.32153 | 2988 ft | 137 kts | 321° |
| 2026-04-25 02:46 | 45.48049 | -122.33071 | 3016 ft | 132 kts | 312° |
| 2026-04-25 02:46 | 45.48591 | -122.34161 | 2996 ft | 134 kts | 305° |
| 2026-04-25 02:46 | 45.49067 | -122.35312 | 2992 ft | 135 kts | 302° |
| 2026-04-25 02:47 | 45.49527 | -122.36488 | 2992 ft | 137 kts | 303° |
| 2026-04-25 02:47 | 45.49987 | -122.37665 | 2992 ft | 136 kts | 303° |
| 2026-04-25 02:47 | 45.50447 | -122.38846 | 3002 ft | 136 kts | 303° |
| 2026-04-25 02:47 | 45.50906 | -122.40022 | 2907 ft | 136 kts | 303° |
| 2026-04-25 02:48 | 45.51300 | -122.41034 | 2764 ft | 134 kts | 302° |
| 2026-04-25 02:48 | 45.51751 | -122.42191 | 2585 ft | 134 kts | 303° |
| 2026-04-25 02:48 | 45.52041 | -122.42936 | 2468 ft | 135 kts | 303° |
| 2026-04-25 02:48 | 45.52435 | -122.43948 | 2318 ft | 134 kts | 303° |
| 2026-04-25 02:49 | 45.52660 | -122.44525 | 2223 ft | 132 kts | 303° |
| 2026-04-25 02:49 | 45.53054 | -122.45539 | 2069 ft | 132 kts | 303° |
| 2026-04-25 02:49 | 45.53501 | -122.46683 | 1893 ft | 133 kts | 303° |
| 2026-04-25 02:49 | 45.53944 | -122.47822 | 1717 ft | 133 kts | 303° |
| 2026-04-25 02:50 | 45.54387 | -122.48963 | 1537 ft | 131 kts | 303° |
| 2026-04-25 02:50 | 45.54663 | -122.49669 | 1422 ft | 130 kts | 303° |
| 2026-04-25 02:50 | 45.54937 | -122.50373 | 1309 ft | 130 kts | 302° |
| 2026-04-25 02:50 | 45.55432 | -122.51645 | 1117 ft | 129 kts | 301° |
| 2026-04-25 02:51 | 45.55722 | -122.52392 | 1012 ft | 131 kts | 301° |